Flight Track Log - Related Links

Times and Time Zones

All times are in EDT time to prevent confusion due to time zone crossing. See the DAL268 flight status page for this flight to view local times or setup timezone preferences in your user account.

Time Position Orientation Groundspeed Altitude Reporting Facility
EDT Latitude Longitude Course Direction KTS MPH feet Rate Location/Type
Wed 02:41:27 PM 37.6110 -122.3780 360° North 98 113  Level FlightAware ADS-B
Wed 02:41:53 PM 37.6270 -122.3670 29° Northeast 174 200 200 1,610 Climbing FlightAware ADS-B
Wed 02:42:08 PM 37.6367 -122.3590 33° Northeast 171 197 1,100 3,143 Climbing FlightAware ADS-B
Wed 02:42:14 PM 37.6405 -122.3550 40° Northeast 174 200 1,300 2,000 Climbing FlightAware ADS-B
Wed 02:42:26 PM 37.6474 -122.3460 46° Northeast 190 219 1,700 1,615 Climbing FlightAware ADS-B
Wed 02:42:40 PM 37.6563 -122.3340 47° Northeast 209 241 2,000 1,742 Climbing FlightAware ADS-B
Wed 02:42:57 PM 37.6684 -122.3180 46° Northeast 231 266 2,600 2,000 Climbing FlightAware ADS-B
Wed 02:43:07 PM 37.6762 -122.3080 45° Northeast 242 278 2,900 1,556 Climbing FlightAware ADS-B
Wed 02:43:24 PM 37.6904 -122.2890 47° Northeast 270 311 3,300 2,000 Climbing FlightAware ADS-B
Wed 02:43:43 PM 37.7064 -122.2670 47° Northeast 282 325 4,100 3,120 Climbing FlightAware ADS-B
Wed 02:44:14 PM 37.7352 -122.2290 46° Northeast 284 327 5,900 3,375 Climbing FlightAware ADS-B
Wed 02:44:31 PM 37.7510 -122.2090 45° Northeast 289 333 6,800 3,290 Climbing FlightAware ADS-B
Wed 02:44:45 PM 37.7642 -122.1920 46° Northeast 290 334 7,600 3,120 Climbing FlightAware ADS-B
Wed 02:44:56 PM 37.7737 -122.1780 49° Northeast 291 335 8,100 2,889 Climbing FlightAware ADS-B
Wed 02:45:12 PM 37.7862 -122.1570 53° Northeast 295 339 8,900 2,903 Climbing FlightAware ADS-B
Wed 02:45:27 PM 37.7986 -122.1360 53° Northeast 298 343 9,600 2,267 Climbing FlightAware ADS-B
Wed 02:45:57 PM 37.8242 -122.0910 54° Northeast 322 371 10,600 1,698 Climbing FlightAware ADS-B
Wed 02:46:20 PM 37.8448 -122.0550 54° Northeast 351 404 11,100 1,350 Climbing FlightAware ADS-B
Wed 02:46:37 PM 37.8592 -122.0250 59° Northeast 364 419 11,500 1,440 Climbing FlightAware ADS-B
Wed 02:46:45 PM 37.8651 -122.0080 66° East 370 426 11,700 1,333 Climbing FlightAware ADS-B
Wed 02:46:55 PM 37.8705 -121.9880 71° East 379 436 11,900 2,195 Climbing FlightAware ADS-B
Wed 02:47:26 PM 37.8842 -121.9210 75° East 385 443 13,200 2,435 Climbing FlightAware ADS-B
Wed 02:48:04 PM 37.9024 -121.8360 75° East 394 453 14,700 2,261 Climbing FlightAware ADS-B
Wed 02:48:35 PM 37.9172 -121.7670 75° East 404 465 15,800 2,129 Climbing FlightAware ADS-B
Wed 02:49:06 PM 37.9322 -121.6960 75° East 414 476 16,900 2,164 Climbing FlightAware ADS-B
Wed 02:49:36 PM 37.9473 -121.6230 75° East 421 484 18,000 2,100 Climbing FlightAware ADS-B
Wed 02:50:06 PM 37.9619 -121.5510 76° East 428 493 19,000 1,935 Climbing FlightAware ADS-B
Wed 02:50:38 PM 37.9761 -121.4740 77° East 435 501 20,000 1,714 Climbing FlightAware ADS-B
Wed 02:51:09 PM 37.9905 -121.3960 77° East 446 513 20,800 1,645 Climbing FlightAware ADS-B
Wed 02:51:40 PM 38.0056 -121.3160 77° East 453 521 21,700 1,714 Climbing FlightAware ADS-B
Wed 02:52:19 PM 38.0248 -121.2140 77° East 462 532 22,800 1,114 Climbing FlightAware ADS-B
Wed 02:52:50 PM 38.0405 -121.1300 77° East 472 543 23,000 846 Climbing FlightAware ADS-B
Wed 02:53:37 PM 38.0630 -121.0090 77° East 472 543 23,900 1,373 Climbing FlightAware ADS-B
Wed 02:54:13 PM 38.0820 -120.9080 77° East 477 549 24,900 1,315 Climbing FlightAware ADS-B
Wed 02:54:50 PM 38.1000 -120.8100 77° East 482 555 25,500 1,297 Climbing FlightAware ADS-B
Wed 02:55:27 PM 38.1190 -120.7050 77° East 488 562 26,500 1,478 Climbing FlightAware ADS-B
Wed 02:55:59 PM 38.1350 -120.6140 77° East 492 566 27,200 1,324 Climbing FlightAware ADS-B
Wed 02:56:35 PM 38.1540 -120.5100 77° East 498 573 28,000 1,235 Climbing FlightAware ADS-B
Wed 02:57:07 PM 38.1700 -120.4210 77° East 503 579 28,600 1,629 Climbing FlightAware ADS-B
Wed 02:57:45 PM 38.1900 -120.3130 77° East 497 572 29,900 1,865 Climbing FlightAware ADS-B
Wed 02:58:21 PM 38.2080 -120.2120 77° East 492 566 30,900 1,629 Climbing FlightAware ADS-B
Wed 02:58:55 PM 38.2250 -120.1150 77° East 491 565 31,800 1,500 Climbing FlightAware ADS-B
Wed 02:59:29 PM 38.2420 -120.0170 78° East 490 564 32,600 1,147 Climbing FlightAware ADS-B
Wed 03:00:03 PM 38.2580 -119.9280 77° East 494 568 33,100 1,183 Climbing FlightAware ADS-B
Wed 03:00:40 PM 38.2750 -119.8260 78° East 490 564 34,000 1,545 Climbing FlightAware ADS-B
Wed 03:01:09 PM 38.2900 -119.7400 77° East 485 558 34,800 923 Climbing FlightAware ADS-B
Wed 03:01:45 PM 38.3080 -119.6390 77° East 478 550 35,000 160 Climbing FlightAware ADS-B
Wed 03:02:24 PM 38.3260 -119.5300 78° East 478 550 35,000  Level FlightAware ADS-B
Wed 03:03:00 PM 38.3430 -119.4310 78° East 481 554 35,000  Level FlightAware ADS-B
Wed 03:03:34 PM 38.3590 -119.3370 78° East 484 557 35,000  Level FlightAware ADS-B
Wed 03:04:10 PM 38.3760 -119.2360 78° East 488 562 35,000  Level FlightAware ADS-B
Wed 03:04:46 PM 38.3930 -119.1340 78° East 489 563 35,000  Level FlightAware ADS-B
Wed 03:05:18 PM 38.4080 -119.0450 78° East 493 567 35,000  Level FlightAware ADS-B
Wed 03:05:55 PM 38.4260 -118.9400 78° East 496 571 35,000  Level FlightAware ADS-B
Wed 03:06:20 PM 38.4360 -118.8680 80° East 495 570 35,000  Level FlightAware ADS-B
Wed 03:07:02 PM 38.4400 -118.7570 87° East 493 567 35,000  Level FlightAware ADS-B
Wed 03:07:40 PM 38.4420 -118.6380 89° East 489 563 35,000  Level FlightAware ADS-B
Wed 03:08:27 PM 38.4450 -118.5170 88° East 489 563 35,000  Level FlightAware ADS-B
Wed 03:09:00 PM 38.4470 -118.4070 89° East 489 563 35,000  Level FlightAware ADS-B
Wed 03:09:46 PM 38.4600 -118.2740 83° East 493 567 35,000  Level FlightAware ADS-B
Wed 03:10:22 PM 38.4790 -118.1720 77° East 493 567 35,000  Level FlightAware ADS-B
Wed 03:10:56 PM 38.4960 -118.0750 77° East 492 566 35,000  Level FlightAware ADS-B
Wed 03:11:50 PM 38.5180 -117.9390 78° East 491 565 35,000  Level FlightAware ADS-B
Wed 03:12:26 PM 38.5330 -117.8530 77° East 491 565 35,000  Level FlightAware ADS-B
Wed 03:13:02 PM 38.5470 -117.7660 78° East 491 565 35,000  Level FlightAware ADS-B
Wed 03:13:38 PM 38.5610 -117.6790 78° East 491 565 35,000  Level FlightAware ADS-B
Wed 03:14:12 PM 38.5750 -117.5970 78° East 491 565 35,000  Level FlightAware ADS-B
Wed 03:14:48 PM 38.5900 -117.5100 78° East 491 565 35,000  Level FlightAware ADS-B
Wed 03:15:22 PM 38.6030 -117.4270 79° East 491 565 35,000  Level FlightAware ADS-B
Wed 03:15:58 PM 38.6180 -117.3400 78° East 491 565 35,000  Level FlightAware ADS-B
Wed 03:16:32 PM 38.6310 -117.2580 79° East 491 565 35,000  Level FlightAware ADS-B
Wed 03:17:09 PM 38.6460 -117.1690 78° East 491 565 35,000  Level FlightAware ADS-B
Wed 03:17:58 PM 38.6660 -117.0500 78° East 491 565 35,000  Level FlightAware ADS-B
Wed 03:18:34 PM 38.6800 -116.9630 78° East 491 565 35,000  Level FlightAware ADS-B
Wed 03:19:10 PM 38.6950 -116.8760 78° East 491 565 35,000  Level FlightAware ADS-B
Wed 03:19:46 PM 38.7090 -116.7890 78° East 491 565 35,000  Level FlightAware ADS-B
Wed 03:20:23 PM 38.7240 -116.6990 78° East 491 565 35,000  Level FlightAware ADS-B
Wed 03:21:00 PM 38.7390 -116.6100 78° East 491 565 35,000  Level FlightAware ADS-B
Wed 03:21:31 PM 38.7733 -116.3222 78° East 485 558 35,000  Level Salt Lake Center
Wed 03:22:21 PM 38.7936 -116.1889 79° East 480 552 35,000  Level Oakland Center
Wed 03:23:21 PM 38.8194 -116.0203 79° East 480 552 35,000  Level Oakland Center
Wed 03:24:37 PM 38.8556 -115.7844 79° East 482 555 35,000  Level Salt Lake Center
Wed 03:25:39 PM 38.8806 -115.6161 79° East 481 554 35,000  Level Salt Lake Center
Wed 03:26:41 PM 38.9061 -115.4481 79° East 480 552 35,000  Level Salt Lake Center
Wed 03:27:43 PM 38.9333 -115.2653 79° East 487 560 35,000  Level Salt Lake Center
Wed 03:28:45 PM 38.9581 -115.0964 79° East 484 557 35,000  Level Salt Lake Center
Wed 03:29:47 PM 38.9822 -114.9267 80° East 482 555 35,000  Level Salt Lake Center
Wed 03:30:50 PM 39.0069 -114.7589 79° East 481 554 35,000  Level Salt Lake Center
Wed 03:31:52 PM 39.0311 -114.5889 80° East 481 554 35,000  Level Salt Lake Center
Wed 03:38:09 PM 39.1780 -113.4980 80° East 474 545 35,000  Level FlightAware ADS-B
Wed 03:38:46 PM 39.1900 -113.4050 81° East 474 545 35,000  Level FlightAware ADS-B
Wed 03:39:23 PM 39.2020 -113.3180 80° East 474 545 35,000  Level FlightAware ADS-B
Wed 03:41:39 PM 39.2529 -112.9070 81° East 481 554 35,000  Level FlightAware ADS-B
Wed 03:42:09 PM 39.2634 -112.8220 81° East 481 554 35,000  Level FlightAware ADS-B
Wed 03:42:40 PM 39.2743 -112.7340 81° East 482 555 35,000  Level FlightAware ADS-B
Wed 03:43:12 PM 39.2852 -112.6450 81° East 482 555 35,000  Level FlightAware ADS-B
Wed 03:43:40 PM 39.2953 -112.5640 81° East 483 556 35,000  Level FlightAware ADS-B
Wed 03:44:01 PM 39.3076 -112.5050 75° East 488 562 35,000  Level FlightAware ADS-B
Wed 03:44:15 PM 39.3190 -112.4680 68° East 491 565 35,000  Level FlightAware ADS-B
Wed 03:44:23 PM 39.3265 -112.4480 64° Northeast 494 568 35,000  Level FlightAware ADS-B
Wed 03:44:37 PM 39.3417 -112.4100 63° Northeast 492 566 35,000  Level FlightAware ADS-B
Wed 03:45:07 PM 39.3695 -112.3290 66° East 492 566 35,000  Level FlightAware ADS-B
Wed 03:45:38 PM 39.3972 -112.2470 66° East 493 567 35,000  Level FlightAware ADS-B
Wed 03:46:09 PM 39.4264 -112.1650 65° Northeast 495 570 35,000  Level FlightAware ADS-B
Wed 03:46:39 PM 39.4556 -112.0840 65° Northeast 495 570 35,000  Level FlightAware ADS-B
Wed 03:47:09 PM 39.4854 -112.0040 64° Northeast 496 571 35,000  Level FlightAware ADS-B
Wed 03:47:40 PM 39.5157 -111.9210 65° Northeast 496 571 35,000  Level FlightAware ADS-B
Wed 03:48:10 PM 39.5459 -111.8390 64° Northeast 497 572 35,000  Level FlightAware ADS-B
Wed 03:48:41 PM 39.5760 -111.7570 65° Northeast 497 572 35,000  Level FlightAware ADS-B
Wed 03:49:13 PM 39.6068 -111.6720 65° Northeast 498 573 35,000  Level FlightAware ADS-B
Wed 03:49:43 PM 39.6365 -111.5900 65° Northeast 500 575 35,000  Level FlightAware ADS-B
Wed 03:50:13 PM 39.6661 -111.5070 65° Northeast 501 577 35,000  Level FlightAware ADS-B
Wed 03:50:47 PM 39.6986 -111.4170 65° Northeast 500 575 35,000  Level FlightAware ADS-B
Wed 03:51:17 PM 39.7280 -111.3340 65° Northeast 501 577 35,000  Level FlightAware ADS-B
Wed 03:51:47 PM 39.7571 -111.2520 65° Northeast 501 577 35,000  Level FlightAware ADS-B
Wed 03:52:17 PM 39.7864 -111.1700 65° Northeast 501 577 35,000  Level FlightAware ADS-B
Wed 03:52:50 PM 39.8175 -111.0820 65° Northeast 502 578 35,000 554 Level FlightAware ADS-B
Wed 03:53:22 PM 39.8484 -110.9940 65° Northeast 500 575 35,600 1,161 Climbing FlightAware ADS-B
Wed 03:53:52 PM 39.8775 -110.9110 65° Northeast 500 575 36,200 971 Climbing FlightAware ADS-B
Wed 03:54:30 PM 39.9141 -110.8070 65° Northeast 501 577 36,700 706 Climbing FlightAware ADS-B
Wed 03:55:00 PM 39.9429 -110.7240 66° East 504 580 37,000 217 Climbing FlightAware ADS-B
Wed 03:55:53 PM 39.9920 -110.5830 66° East 500 575 37,000  Level FlightAware ADS-B
Wed 03:56:22 PM 40.0200 -110.5040 65° Northeast 500 575 37,000  Level FlightAware ADS-B
Wed 03:57:01 PM 40.0570 -110.3950 66° East 500 575 37,000  Level FlightAware ADS-B
Wed 03:57:36 PM 40.0830 -110.3190 66° East 499 574 37,000  Level FlightAware ADS-B
Wed 03:58:10 PM 40.1220 -110.2060 66° East 499 574 37,000  Level FlightAware ADS-B
Wed 03:58:44 PM 40.1500 -110.1220 66° East 500 575 37,000  Level FlightAware ADS-B
Wed 03:59:20 PM 40.1790 -110.0250 69° East 499 574 37,000  Level FlightAware ADS-B
Wed 03:59:54 PM 40.2110 -109.9160 69° East 499 574 37,000  Level FlightAware ADS-B
Wed 04:00:29 PM 40.2380 -109.8220 69° East 495 570 37,000  Level FlightAware ADS-B
Wed 04:01:14 PM 40.2750 -109.6940 69° East 490 564 37,000  Level FlightAware ADS-B
Wed 04:01:54 PM 40.3080 -109.5820 69° East 486 559 37,000  Level FlightAware ADS-B
Wed 04:02:36 PM 40.3410 -109.4650 70° East 484 557 37,000  Level FlightAware ADS-B
Wed 04:03:06 PM 40.3630 -109.3890 69° East 484 557 37,000  Level FlightAware ADS-B
Wed 04:03:43 PM 40.3930 -109.2830 70° East 484 557 37,000  Level FlightAware ADS-B
Wed 04:04:23 PM 40.4240 -109.1760 69° East 485 558 37,000  Level FlightAware ADS-B
Wed 04:04:54 PM 40.4490 -109.0860 70° East 485 558 37,000  Level FlightAware ADS-B
Wed 04:05:29 PM 40.4760 -108.9910 69° East 485 558 37,000  Level FlightAware ADS-B
Wed 04:06:06 PM 40.5040 -108.8890 70° East 485 558 37,000  Level FlightAware ADS-B
Wed 04:06:43 PM 40.5330 -108.7850 70° East 486 559 37,000  Level FlightAware ADS-B
Wed 04:07:19 PM 40.5600 -108.6890 70° East 487 560 37,000  Level FlightAware ADS-B
Wed 04:07:51 PM 40.5860 -108.5980 69° East 489 563 37,000  Level FlightAware ADS-B
Wed 04:08:28 PM 40.6120 -108.5010 71° East 490 564 37,000  Level FlightAware ADS-B
Wed 04:08:58 PM 40.6340 -108.4210 70° East 491 565 37,000  Level FlightAware ADS-B
Wed 04:09:38 PM 40.6670 -108.3010 70° East 493 567 37,000  Level FlightAware ADS-B
Wed 04:10:19 PM 40.7000 -108.1820 70° East 494 568 37,000  Level FlightAware ADS-B
Wed 04:10:59 PM 40.7280 -108.0790 70° East 494 568 37,000  Level FlightAware ADS-B
Wed 04:11:29 PM 40.7540 -107.9830 70° East 494 568 37,000  Level FlightAware ADS-B
Wed 04:12:05 PM 40.7780 -107.8920 71° East 494 568 37,000  Level FlightAware ADS-B
Wed 04:12:44 PM 40.8100 -107.7750 70° East 494 568 37,000  Level FlightAware ADS-B
Wed 04:13:21 PM 40.8390 -107.6660 71° East 494 568 37,000  Level FlightAware ADS-B
Wed 04:13:56 PM 40.8630 -107.5770 70° East 494 568 37,000  Level FlightAware ADS-B
Wed 04:14:44 PM 40.8970 -107.4510 70° East 494 568 37,000  Level FlightAware ADS-B
Wed 04:15:21 PM 40.9220 -107.3610 70° East 494 568 37,000  Level FlightAware ADS-B
Wed 04:15:58 PM 40.9460 -107.2720 70° East 494 568 37,000  Level FlightAware ADS-B
Wed 04:16:47 PM 40.9790 -107.1530 70° East 494 568 37,000  Level FlightAware ADS-B
Wed 04:17:23 PM 41.0030 -107.0660 70° East 494 568 37,000  Level FlightAware ADS-B
Wed 04:17:59 PM 41.0260 -106.9790 71° East 494 568 37,000  Level FlightAware ADS-B
Wed 04:18:35 PM 41.0500 -106.8920 70° East 494 568 37,000  Level FlightAware ADS-B
Wed 04:19:13 PM 41.1010 -106.6640 73° East 496 571 37,000  Level FlightAware ADS-B
Wed 04:19:55 PM 41.1290 -106.5540 71° East 496 571 37,000  Level FlightAware ADS-B
Wed 04:20:31 PM 41.1520 -106.4660 71° East 496 571 37,000  Level FlightAware ADS-B
Wed 04:21:07 PM 41.1750 -106.3780 71° East 496 571 37,000  Level FlightAware ADS-B
Wed 04:21:36 PM 41.2060 -106.2520 72° East 495 570 37,000  Level FlightAware ADS-B
Wed 04:22:13 PM 41.2340 -106.1410 71° East 496 571 37,000  Level FlightAware ADS-B
Wed 04:22:47 PM 41.2570 -106.0460 72° East 496 571 37,000  Level FlightAware ADS-B
Wed 04:23:21 PM 41.2830 -105.9430 71° East 498 573 37,000  Level FlightAware ADS-B
Wed 04:24:01 PM 41.3110 -105.8280 72° East 498 573 37,000  Level FlightAware ADS-B
Wed 04:24:29 PM 41.3310 -105.7490 71° East 499 574 37,000  Level FlightAware ADS-B
Wed 04:25:11 PM 41.3620 -105.6240 72° East 501 577 37,000  Level FlightAware ADS-B
Wed 04:25:45 PM 41.3890 -105.5250 70° East 502 578 37,000  Level FlightAware ADS-B
Wed 04:26:13 PM 41.4100 -105.4440 71° East 502 578 37,000  Level FlightAware ADS-B
Wed 04:26:46 PM 41.4340 -105.3480 72° East 501 577 37,000  Level FlightAware ADS-B
Wed 04:27:23 PM 41.4620 -105.2410 71° East 500 575 37,000  Level FlightAware ADS-B
Wed 04:27:56 PM 41.4866 -105.1430 71° East 502 578 37,000  Level FlightAware ADS-B
Wed 04:28:26 PM 41.5090 -105.0550 71° East 501 577 37,000  Level FlightAware ADS-B
Wed 04:28:56 PM 41.5312 -104.9670 71° East 502 578 37,000  Level FlightAware ADS-B
Wed 04:29:26 PM 41.5535 -104.8780 71° East 503 579 37,000  Level FlightAware ADS-B
Wed 04:29:58 PM 41.5766 -104.7860 71° East 504 580 37,000  Level FlightAware ADS-B
Wed 04:30:28 PM 41.5988 -104.6970 72° East 504 580 37,000  Level FlightAware ADS-B
Wed 04:31:00 PM 41.6220 -104.6040 72° East 503 579 37,000  Level FlightAware ADS-B
Wed 04:31:30 PM 41.6441 -104.5150 72° East 505 581 37,000  Level FlightAware ADS-B
Wed 04:32:01 PM 41.6670 -104.4220 72° East 505 581 37,000  Level FlightAware ADS-B
Wed 04:32:31 PM 41.6889 -104.3330 72° East 506 582 37,000  Level FlightAware ADS-B
Wed 04:33:01 PM 41.7109 -104.2430 72° East 507 583 37,000  Level FlightAware ADS-B
Wed 04:33:32 PM 41.7330 -104.1530 72° East 508 585 37,000  Level FlightAware ADS-B
Wed 04:34:03 PM 41.7557 -104.0590 72° East 509 586 37,000  Level FlightAware ADS-B
Wed 04:34:35 PM 41.7785 -103.9650 72° East 511 588 37,000  Level FlightAware ADS-B
Wed 04:35:05 PM 41.8006 -103.8740 72° East 512 589 37,000  Level FlightAware ADS-B
Wed 04:35:35 PM 41.8224 -103.7830 72° East 513 590 37,000  Level FlightAware ADS-B
Wed 04:36:05 PM 41.8442 -103.6920 72° East 513 590 37,000  Level FlightAware ADS-B
Wed 04:36:36 PM 41.8662 -103.6000 72° East 514 592 37,000  Level FlightAware ADS-B
Wed 04:36:59 PM 41.8824 -103.5300 73° East 515 593 37,000  Level FlightAware ADS-B
Wed 04:37:31 PM 41.9009 -103.4320 76° East 514 592 37,000  Level FlightAware ADS-B
Wed 04:38:02 PM 41.9150 -103.3350 79° East 514 592 37,000  Level FlightAware ADS-B
Wed 04:38:32 PM 41.9284 -103.2400 79° East 515 593 37,000  Level FlightAware ADS-B
Wed 04:39:03 PM 41.9421 -103.1420 79° East 515 593 37,000  Level FlightAware ADS-B
Wed 04:39:33 PM 41.9552 -103.0470 79° East 516 594 37,000  Level FlightAware ADS-B
Wed 04:40:05 PM 41.9687 -102.9490 79° East 516 594 37,000  Level FlightAware ADS-B
Wed 04:40:36 PM 41.9821 -102.8510 80° East 516 594 37,000  Level FlightAware ADS-B
Wed 04:41:06 PM 41.9950 -102.7560 80° East 516 594 37,000  Level FlightAware ADS-B
Wed 04:41:43 PM 42.0110 -102.6380 80° East 517 595 37,000  Level FlightAware ADS-B
Wed 04:42:31 PM 42.0309 -102.4890 80° East 518 596 37,000  Level FlightAware ADS-B
Wed 04:43:10 PM 42.0475 -102.3630 80° East 519 597 37,000  Level FlightAware ADS-B
Wed 04:43:40 PM 42.0601 -102.2680 80° East 520 598 37,000  Level FlightAware ADS-B
Wed 04:44:11 PM 42.0729 -102.1700 80° East 521 600 37,000  Level FlightAware ADS-B
Wed 04:45:08 PM 42.0963 -101.9890 80° East 521 600 37,000  Level FlightAware ADS-B
Wed 04:46:00 PM 42.1147 -101.8569 80° East 523 602 37,000  Level Denver Center
Wed 04:47:02 PM 42.1408 -101.6425 81° East 520 598 37,000  Level Denver Center
Wed 04:48:04 PM 42.1639 -101.4578 80° East 522 601 37,000  Level Denver Center
Wed 04:49:06 PM 42.1906 -101.2392 81° East 527 606 37,000  Level Denver Center
Wed 04:50:08 PM 42.2128 -101.0533 81° East 525 604 37,000  Level Denver Center
Wed 04:51:10 PM 42.2386 -100.8344 81° East 526 605 37,000  Level Denver Center
Wed 04:52:12 PM 42.2603 -100.6467 81° East 529 609 37,000  Level Denver Center
Wed 04:53:14 PM 42.2864 -100.4244 81° East 534 615 37,000  Level Denver Center
Wed 04:54:16 PM 42.3072 -100.2325 82° East 537 618 37,000  Level Denver Center
Wed 04:55:41 PM 42.3397 -99.9442 81° East 535 616 37,000  Level Minneapolis Center
Wed 04:56:20 PM 42.3533 -99.8186 82° East 539 620 37,000  Level Denver Center
Wed 04:57:22 PM 42.3756 -99.6206 81° East 537 618 37,000  Level Denver Center
Wed 04:58:25 PM 42.3961 -99.4203 82° East 537 618 37,000  Level Denver Center
Wed 04:59:26 PM 42.4122 -99.2597 82° East 535 616 37,000  Level Denver Center
Wed 05:00:29 PM 42.4411 -98.9769 82° East 539 620 37,000  Level Denver Center
Wed 05:01:31 PM 42.4614 -98.7753 82° East 539 620 37,000  Level Denver Center
Wed 05:07:25 PM 42.5330 -97.5750 82° East 550 633 37,000  Level FlightAware ADS-B
Wed 05:08:00 PM 42.5400 -97.4580 85° East 550 633 37,000  Level FlightAware ADS-B
Wed 05:08:35 PM 42.5460 -97.3350 86° East 550 633 37,000  Level FlightAware ADS-B
Wed 05:09:17 PM 42.5550 -97.1750 86° East 551 634 37,000  Level FlightAware ADS-B
Wed 05:10:00 PM 42.5620 -97.0390 86° East 551 634 37,000  Level FlightAware ADS-B
Wed 05:10:41 PM 42.5690 -96.8880 86° East 549 632 37,000  Level FlightAware ADS-B
Wed 05:11:17 PM 42.5750 -96.7720 86° East 549 632 37,000  Level FlightAware ADS-B
Wed 05:11:49 PM 42.5800 -96.6550 87° East 549 632 37,000  Level FlightAware ADS-B
Wed 05:12:26 PM 42.5860 -96.5340 86° East 549 632 37,000  Level FlightAware ADS-B
Wed 05:13:03 PM 42.5920 -96.4010 86° East 548 631 37,000  Level FlightAware ADS-B
Wed 05:13:35 PM 42.5960 -96.2920 87° East 548 631 37,000  Level FlightAware ADS-B
Wed 05:14:12 PM 42.6020 -96.1660 86° East 548 631 37,000  Level FlightAware ADS-B
Wed 05:14:40 PM 42.6060 -96.0740 87° East 548 631 37,000  Level FlightAware ADS-B
Wed 05:15:19 PM 42.6110 -95.9370 87° East 547 629 37,000  Level FlightAware ADS-B
Wed 05:15:53 PM 42.6160 -95.8180 87° East 547 629 37,000  Level FlightAware ADS-B
Wed 05:16:29 PM 42.6210 -95.6960 87° East 548 631 37,000  Level FlightAware ADS-B
Wed 05:17:05 PM 42.6250 -95.5730 87° East 550 633 37,000  Level FlightAware ADS-B
Wed 05:17:37 PM 42.6290 -95.4630 87° East 550 633 37,000  Level FlightAware ADS-B
Wed 05:18:17 PM 42.6340 -95.3240 87° East 551 634 37,000  Level FlightAware ADS-B
Wed 05:18:53 PM 42.6390 -95.2040 87° East 551 634 37,000  Level FlightAware ADS-B
Wed 05:19:25 PM 42.6420 -95.0890 88° East 551 634 37,000  Level FlightAware ADS-B
Wed 05:20:01 PM 42.6460 -94.9670 87° East 551 634 37,000  Level FlightAware ADS-B
Wed 05:20:39 PM 42.6500 -94.8340 88° East 551 634 37,000  Level FlightAware ADS-B
Wed 05:21:09 PM 42.6540 -94.7320 87° East 551 634 37,000  Level FlightAware ADS-B
Wed 05:21:49 PM 42.6580 -94.5930 88° East 552 635 37,000  Level FlightAware ADS-B
Wed 05:22:21 PM 42.6610 -94.4840 88° East 552 635 37,000  Level FlightAware ADS-B
Wed 05:22:58 PM 42.6640 -94.3530 88° East 552 635 37,000  Level FlightAware ADS-B
Wed 05:23:34 PM 42.6670 -94.2300 88° East 553 636 37,000  Level FlightAware ADS-B
Wed 05:24:06 PM 42.6700 -94.1200 88° East 553 636 37,000  Level FlightAware ADS-B
Wed 05:24:38 PM 42.6730 -94.0100 88° East 553 636 37,000  Level FlightAware ADS-B
Wed 05:25:12 PM 42.6760 -93.8920 88° East 553 636 37,000  Level FlightAware ADS-B
Wed 05:25:47 PM 42.6780 -93.7700 89° East 553 636 37,000  Level FlightAware ADS-B
Wed 05:26:28 PM 42.6810 -93.6290 88° East 552 635 37,000  Level FlightAware ADS-B
Wed 05:27:00 PM 42.6830 -93.5170 89° East 552 635 37,000  Level FlightAware ADS-B
Wed 05:27:36 PM 42.6860 -93.3930 88° East 553 636 37,000  Level FlightAware ADS-B
Wed 05:28:12 PM 42.6880 -93.2710 89° East 554 638 37,000  Level FlightAware ADS-B
Wed 05:28:44 PM 42.6900 -93.1560 89° East 555 639 37,000  Level FlightAware ADS-B
Wed 05:29:22 PM 42.6920 -93.0250 89° East 555 639 37,000  Level FlightAware ADS-B
Wed 05:29:58 PM 42.6930 -92.9060 89° East 556 640 37,000  Level FlightAware ADS-B
Wed 05:30:30 PM 42.6950 -92.7880 89° East 557 641 37,000  Level FlightAware ADS-B
Wed 05:31:07 PM 42.6970 -92.6600 89° East 557 641 37,000  Level FlightAware ADS-B
Wed 05:31:40 PM 42.6980 -92.5430 89° East 558 642 37,000  Level FlightAware ADS-B
Wed 05:32:17 PM 42.6990 -92.4190 89° East 558 642 37,000  Level FlightAware ADS-B
Wed 05:32:52 PM 42.7000 -92.2920 89° East 558 642 37,000  Level FlightAware ADS-B
Wed 05:33:25 PM 42.7010 -92.1770 89° East 559 643 37,000  Level FlightAware ADS-B
Wed 05:34:02 PM 42.7020 -92.0450 89° East 560 644 37,000  Level FlightAware ADS-B
Wed 05:34:38 PM 42.7030 -91.9240 89° East 561 646 37,000  Level FlightAware ADS-B
Wed 05:35:10 PM 42.7030 -91.8090 90° East 561 646 37,000  Level FlightAware ADS-B
Wed 05:35:45 PM 42.7040 -91.6830 89° East 560 644 37,000  Level FlightAware ADS-B
Wed 05:36:20 PM 42.7040 -91.5620 90° East 561 646 37,000  Level FlightAware ADS-B
Wed 05:36:49 PM 42.7040 -91.4630 90° East 561 646 37,000  Level FlightAware ADS-B
Wed 05:37:38 PM 42.7040 -91.2960 90° East 560 644 37,000  Level FlightAware ADS-B
Wed 05:38:15 PM 42.7040 -91.1640 90° East 560 644 37,000  Level FlightAware ADS-B
Wed 05:38:57 PM 42.7040 -91.0140 90° East 560 644 37,000  Level FlightAware ADS-B
Wed 05:39:30 PM 42.7040 -90.9030 90° East 560 644 37,000  Level FlightAware ADS-B
Wed 05:40:06 PM 42.7030 -90.7720 91° East 559 643 37,000  Level FlightAware ADS-B
Wed 05:40:39 PM 42.7020 -90.6530 91° East 558 642 37,000  Level FlightAware ADS-B
Wed 05:41:16 PM 42.7020 -90.5230 90° East 557 641 37,000  Level FlightAware ADS-B
Wed 05:41:49 PM 42.7010 -90.4100 91° East 557 641 37,000  Level FlightAware ADS-B
Wed 05:42:26 PM 42.7000 -90.2780 91° East 557 641 37,000  Level FlightAware ADS-B
Wed 05:43:03 PM 42.6980 -90.1520 91° East 557 641 37,000  Level FlightAware ADS-B
Wed 05:43:35 PM 42.6970 -90.0390 91° East 558 642 37,000  Level FlightAware ADS-B
Wed 05:44:11 PM 42.6960 -89.9130 91° East 559 643 37,000  Level FlightAware ADS-B
Wed 05:44:43 PM 42.6940 -89.8010 91° East 560 644 37,000  Level FlightAware ADS-B
Wed 05:45:19 PM 42.6920 -89.6750 91° East 560 644 37,000  Level FlightAware ADS-B
Wed 05:45:55 PM 42.6910 -89.5470 91° East 560 644 37,000  Level FlightAware ADS-B
Wed 05:46:31 PM 42.6890 -89.4240 91° East 561 646 37,000  Level FlightAware ADS-B
Wed 05:47:02 PM 42.6870 -89.3110 91° East 561 646 37,000  Level FlightAware ADS-B
Wed 05:47:43 PM 42.6840 -89.1690 92° East 561 646 37,000  Level FlightAware ADS-B
Wed 05:48:15 PM 42.6820 -89.0560 91° East 562 647 37,000  Level FlightAware ADS-B
Wed 05:48:51 PM 42.6790 -88.9280 92° East 562 647 37,000  Level FlightAware ADS-B
Wed 05:49:27 PM 42.6770 -88.8040 91° East 562 647 37,000  Level FlightAware ADS-B
Wed 05:49:59 PM 42.6740 -88.6910 92° East 562 647 37,000  Level FlightAware ADS-B
Wed 05:50:36 PM 42.6710 -88.5580 92° East 562 647 37,000  Level FlightAware ADS-B
Wed 05:51:09 PM 42.6680 -88.4450 92° East 562 647 37,000  Level FlightAware ADS-B
Wed 05:51:46 PM 42.6650 -88.3130 92° East 561 646 37,000  Level FlightAware ADS-B
Wed 05:52:21 PM 42.6610 -88.1910 93° East 560 644 37,000  Level FlightAware ADS-B
Wed 05:52:53 PM 42.6580 -88.0800 92° East 559 643 37,000  Level FlightAware ADS-B
Wed 05:53:27 PM 42.6550 -87.9670 92° East 558 642 37,000  Level FlightAware ADS-B
Wed 05:54:07 PM 42.6510 -87.8290 92° East 557 641 37,000  Level FlightAware ADS-B
Wed 05:54:39 PM 42.6470 -87.7120 93° East 556 640 37,000  Level FlightAware ADS-B
Wed 05:55:14 PM 42.6430 -87.5870 92° East 555 639 37,000  Level FlightAware ADS-B
Wed 05:55:50 PM 42.6390 -87.4650 93° East 555 639 37,000  Level FlightAware ADS-B
Wed 05:56:24 PM 42.6350 -87.3440 93° East 555 639 37,000  Level FlightAware ADS-B
Wed 05:57:02 PM 42.6310 -87.2120 92° East 554 638 37,000  Level FlightAware ADS-B
Wed 05:57:34 PM 42.6260 -87.1010 93° East 554 638 37,000  Level FlightAware ADS-B
Wed 05:58:10 PM 42.6220 -86.9780 92° East 555 639 37,000  Level FlightAware ADS-B
Wed 05:58:46 PM 42.6170 -86.8600 93° East 554 638 37,000  Level FlightAware ADS-B
Wed 05:59:18 PM 42.6130 -86.7410 93° East 554 638 37,000  Level FlightAware ADS-B
Wed 05:59:54 PM 42.6080 -86.6180 93° East 554 638 37,000  Level FlightAware ADS-B
Wed 06:00:32 PM 42.6020 -86.4870 94° East 554 638 37,000  Level FlightAware ADS-B
Wed 06:01:05 PM 42.5970 -86.3690 93° East 554 638 37,000  Level FlightAware ADS-B
Wed 06:01:42 PM 42.5920 -86.2420 93° East 556 640 37,000  Level FlightAware ADS-B
Wed 06:02:18 PM 42.5860 -86.1170 94° East 557 641 37,000  Level FlightAware ADS-B
Wed 06:02:51 PM 42.5810 -86.0020 93° East 558 642 37,000  Level FlightAware ADS-B
Wed 06:03:24 PM 42.5750 -85.8870 94° East 559 643 37,000  Level FlightAware ADS-B
Wed 06:04:00 PM 42.5690 -85.7600 94° East 560 644 37,000  Level FlightAware ADS-B
Wed 06:04:37 PM 42.5630 -85.6300 94° East 559 643 37,000  Level FlightAware ADS-B
Wed 06:05:11 PM 42.5570 -85.5120 94° East 559 643 37,000  Level FlightAware ADS-B
Wed 06:05:47 PM 42.5500 -85.3840 94° East 561 646 37,000  Level FlightAware ADS-B
Wed 06:06:22 PM 42.5440 -85.2660 94° East 563 648 37,000  Level FlightAware ADS-B
Wed 06:06:59 PM 42.5370 -85.1330 94° East 564 649 37,000  Level FlightAware ADS-B
Wed 06:07:29 PM 42.5310 -85.0320 95° East 563 648 37,000  Level FlightAware ADS-B
Wed 06:08:02 PM 42.5250 -84.9160 94° East 561 646 37,000  Level FlightAware ADS-B
Wed 06:08:43 PM 42.5160 -84.7670 95° East 560 644 37,000  Level FlightAware ADS-B
Wed 06:09:12 PM 42.5110 -84.6690 94° East 559 643 37,000  Level FlightAware ADS-B
Wed 06:09:51 PM 42.5030 -84.5310 94° East 559 643 37,000  Level FlightAware ADS-B
Wed 06:10:29 PM 42.4950 -84.3990 95° East 559 643 37,000  Level FlightAware ADS-B
Wed 06:11:01 PM 42.4880 -84.2880 95° East 559 643 37,000  Level FlightAware ADS-B
Wed 06:11:36 PM 42.4800 -84.1700 95° East 559 643 37,000  Level FlightAware ADS-B
Wed 06:12:09 PM 42.4740 -84.0630 94° East 560 644 37,000  Level FlightAware ADS-B
Wed 06:12:47 PM 42.4640 -83.9180 95° East 559 643 37,000  Level FlightAware ADS-B
Wed 06:13:23 PM 42.4560 -83.7960 95° East 559 643 37,000  Level FlightAware ADS-B
Wed 06:13:55 PM 42.4490 -83.6830 95° East 559 643 37,000  Level FlightAware ADS-B
Wed 06:14:31 PM 42.4400 -83.5570 95° East 559 643 37,000  Level FlightAware ADS-B
Wed 06:15:05 PM 42.4320 -83.4380 95° East 559 643 37,000  Level FlightAware ADS-B
Wed 06:15:41 PM 42.4230 -83.3130 96° East 559 643 37,000  Level FlightAware ADS-B
Wed 06:16:17 PM 42.4150 -83.1910 95° East 559 643 37,000  Level FlightAware ADS-B
Wed 06:16:53 PM 42.4060 -83.0670 96° East 561 646 37,000  Level FlightAware ADS-B
Wed 06:17:29 PM 42.3960 -82.9370 96° East 562 647 37,000  Level FlightAware ADS-B
Wed 06:18:03 PM 42.3860 -82.8180 96° East 563 648 37,000  Level FlightAware ADS-B
Wed 06:18:32 PM 42.3780 -82.7200 96° East 562 647 37,000  Level FlightAware ADS-B
Wed 06:19:10 PM 42.3670 -82.5890 96° East 562 647 37,000  Level FlightAware ADS-B
Wed 06:19:47 PM 42.3550 -82.4560 97° East 563 648 37,000  Level FlightAware ADS-B
Wed 06:20:23 PM 42.3450 -82.3340 96° East 564 649 37,000  Level FlightAware ADS-B
Wed 06:20:57 PM 42.3350 -82.2150 96° East 564 649 37,000  Level FlightAware ADS-B
Wed 06:21:29 PM 42.3250 -82.1110 97° East 564 649 37,000  Level FlightAware ADS-B
Wed 06:22:06 PM 42.3150 -81.9960 97° East 563 648 37,000  Level FlightAware ADS-B
Wed 06:22:48 PM 42.3020 -81.8510 97° East 563 648 37,000  Level FlightAware ADS-B
Wed 06:23:25 PM 42.2910 -81.7270 97° East 564 649 37,000  Level FlightAware ADS-B
Wed 06:24:00 PM 42.2790 -81.5990 97° East 564 649 37,000  Level FlightAware ADS-B
Wed 06:24:32 PM 42.2680 -81.4830 97° East 563 648 37,000  Level FlightAware ADS-B
Wed 06:25:07 PM 42.2570 -81.3710 98° East 563 648 37,000  Level FlightAware ADS-B
Wed 06:25:42 PM 42.2440 -81.2300 97° East 563 648 37,000  Level FlightAware ADS-B
Wed 06:26:18 PM 42.2330 -81.1170 97° East 563 648 37,000  Level FlightAware ADS-B
Wed 06:26:54 PM 42.2210 -81.0000 98° East 563 648 37,000  Level FlightAware ADS-B
Wed 06:27:35 PM 42.2060 -80.8470 97° East 563 648 37,000  Level FlightAware ADS-B
Wed 06:28:08 PM 42.1950 -80.7370 98° East 562 647 37,000  Level FlightAware ADS-B
Wed 06:28:47 PM 42.1800 -80.5890 98° East 560 644 37,000  Level FlightAware ADS-B
Wed 06:29:14 PM 42.1710 -80.5040 98° East 560 644 37,000  Level FlightAware ADS-B
Wed 06:29:55 PM 42.1560 -80.3590 98° East 559 643 37,000  Level FlightAware ADS-B
Wed 06:30:26 PM 42.1450 -80.2540 98° East 560 644 37,000  Level FlightAware ADS-B
Wed 06:31:02 PM 42.1320 -80.1340 98° East 560 644 37,000  Level FlightAware ADS-B
Wed 06:31:37 PM 42.1190 -80.0080 98° East 560 644 37,000  Level FlightAware ADS-B
Wed 06:32:15 PM 42.1030 -79.8620 98° East 561 646 37,000  Level FlightAware ADS-B
Wed 06:32:53 PM 42.0890 -79.7340 98° East 562 647 37,000  Level FlightAware ADS-B
Wed 06:33:25 PM 42.0760 -79.6200 99° East 562 647 37,000  Level FlightAware ADS-B
Wed 06:34:01 PM 42.0620 -79.4940 98° East 563 648 37,000  Level FlightAware ADS-B
Wed 06:34:33 PM 42.0500 -79.3890 99° East 563 648 37,000  Level FlightAware ADS-B
Wed 06:35:09 PM 42.0350 -79.2600 99° East 562 647 37,000  Level FlightAware ADS-B
Wed 06:35:45 PM 42.0210 -79.1350 99° East 562 647 37,000  Level FlightAware ADS-B
Wed 06:36:17 PM 42.0090 -79.0310 99° East 562 647 37,000  Level FlightAware ADS-B
Wed 06:36:56 PM 41.9930 -78.8960 99° East 562 647 37,000  Level FlightAware ADS-B
Wed 06:37:31 PM 41.9790 -78.7730 99° East 563 648 37,000  Level FlightAware ADS-B
Wed 06:38:05 PM 41.9640 -78.6540 100° East 563 648 37,000  Level FlightAware ADS-B
Wed 06:38:43 PM 41.9490 -78.5230 99° East 563 648 37,000  Level FlightAware ADS-B
Wed 06:39:15 PM 41.9350 -78.4130 100° East 564 649 37,000  Level FlightAware ADS-B
Wed 06:39:47 PM 41.9220 -78.3090 100° East 564 649 37,000  Level FlightAware ADS-B
Wed 06:40:25 PM 41.9060 -78.1760 99° East 563 648 37,000  Level FlightAware ADS-B
Wed 06:41:00 PM 41.8900 -78.0530 100° East 564 649 37,000  Level FlightAware ADS-B
Wed 06:41:38 PM 41.8740 -77.9270 100° East 567 652 37,000  Level FlightAware ADS-B
Wed 06:42:10 PM 41.8530 -77.8100 104° East 569 655 37,000  Level FlightAware ADS-B
Wed 06:42:46 PM 41.8230 -77.6900 109° East 570 656 37,000  Level FlightAware ADS-B
Wed 06:43:20 PM 41.7930 -77.5780 110° East 570 656 37,000  Level FlightAware ADS-B
Wed 06:43:54 PM 41.7630 -77.4640 109° East 570 656 37,000  Level FlightAware ADS-B
Wed 06:44:30 PM 41.7320 -77.3480 110° East 570 656 37,000  Level FlightAware ADS-B
Wed 06:45:04 PM 41.7010 -77.2330 110° East 568 654 37,000  Level FlightAware ADS-B
Wed 06:45:40 PM 41.6690 -77.1150 110° East 569 655 37,000  Level FlightAware ADS-B
Wed 06:46:22 PM 41.6310 -76.9760 110° East 568 654 37,000  Level FlightAware ADS-B
Wed 06:47:04 PM 41.5960 -76.8460 110° East 567 652 37,000  Level FlightAware ADS-B
Wed 06:47:27 PM 41.5728 -76.7620 110° East 563 648 37,000 -194 Level FlightAware ADS-B
Wed 06:48:06 PM 41.5378 -76.6343 110° East 558 642 36,800 -411 Descending FlightAware ADS-B
Wed 06:48:40 PM 41.5080 -76.5265 110° East 553 636 36,500 -618 Descending FlightAware ADS-B
Wed 06:49:14 PM 41.4781 -76.4181 110° East 545 627 36,100 -1,031 Descending FlightAware ADS-B
Wed 06:49:44 PM 41.4518 -76.3231 110° East 546 628 35,400 -1,180 Descending FlightAware ADS-B
Wed 06:50:15 PM 41.4251 -76.2273 110° East 536 617 34,900 -1,108 Descending FlightAware ADS-B
Wed 06:50:49 PM 41.3963 -76.1242 110° East 533 613 34,200 -1,477 Descending FlightAware ADS-B
Wed 06:51:20 PM 41.3690 -76.0275 111° Southeast 532 612 33,300 -2,164 Descending FlightAware ADS-B
Wed 06:51:50 PM 41.3431 -75.9359 111° Southeast 529 609 32,000 -2,597 Descending FlightAware ADS-B
Wed 06:52:27 PM 41.3115 -75.8248 111° Southeast 527 606 30,400 -2,687 Descending FlightAware ADS-B
Wed 06:52:57 PM 41.2854 -75.7338 111° Southeast 526 605 29,000 -2,754 Descending FlightAware ADS-B
Wed 06:53:28 PM 41.2575 -75.6436 112° Southeast 519 597 27,600 -2,571 Descending FlightAware ADS-B
Wed 06:54:00 PM 41.2272 -75.5520 114° Southeast 505 581 26,300 -2,419 Descending FlightAware ADS-B
Wed 06:54:30 PM 41.1985 -75.4661 114° Southeast 495 570 25,100 -2,459 Descending FlightAware ADS-B
Wed 06:55:01 PM 41.1701 -75.3815 114° Southeast 484 557 23,800 -2,032 Descending FlightAware ADS-B
Wed 06:55:32 PM 41.1424 -75.2993 114° Southeast 472 543 23,000 -787 Descending FlightAware ADS-B
Wed 06:56:02 PM 41.1162 -75.2220 114° Southeast 446 513 23,000  Level FlightAware ADS-B
Wed 06:56:33 PM 41.0916 -75.1494 114° Southeast 412 474 23,000 -286 Level FlightAware ADS-B
Wed 06:57:05 PM 41.0675 -75.0782 114° Southeast 385 443 22,700 -952 Descending FlightAware ADS-B
Wed 06:57:36 PM 41.0454 -75.0135 114° Southeast 377 434 22,000 -1,574 Descending FlightAware ADS-B
Wed 06:58:06 PM 41.0235 -74.9494 114° Southeast 378 435 21,100 -1,154 Descending FlightAware ADS-B
Wed 06:58:28 PM 41.0075 -74.9026 114° Southeast 380 437 21,000 -167 Descending FlightAware ADS-B
Wed 06:58:42 PM 40.9993 -74.8727 110° East 381 438 21,000  Level FlightAware ADS-B
Wed 06:58:50 PM 40.9955 -74.8542 105° East 382 440 21,000  Level FlightAware ADS-B
Wed 06:59:00 PM 40.9920 -74.8323 102° East 382 440 21,000  Level FlightAware ADS-B
Wed 06:59:30 PM 40.9842 -74.7616 98° East 381 438 21,000  Level FlightAware ADS-B
Wed 07:00:01 PM 40.9767 -74.6919 98° East 380 437 21,000  Level FlightAware ADS-B
Wed 07:00:32 PM 40.9691 -74.6211 98° East 381 438 21,000  Level FlightAware ADS-B
Wed 07:00:43 PM 40.9663 -74.5957 98° East 380 437 21,000  Level FlightAware ADS-B
Wed 07:01:02 PM 40.9613 -74.5503 98° East 382 440 21,000 -120 Level FlightAware ADS-B
Wed 07:01:33 PM 40.9535 -74.4793 98° East 382 440 20,900 -590 Descending FlightAware ADS-B
Wed 07:02:03 PM 40.9459 -74.4106 98° East 375 432 20,400 -1,180 Descending FlightAware ADS-B
Wed 07:02:34 PM 40.9382 -74.3415 98° East 368 423 19,700 -1,355 Descending FlightAware ADS-B
Wed 07:03:05 PM 40.9306 -74.2741 98° East 359 413 19,000 -1,105 Descending FlightAware ADS-B
Wed 07:03:12 PM 40.9289 -74.2589 98° East 361 415 19,000  Level FlightAware ADS-B
Wed 07:03:35 PM 40.9232 -74.2090 99° East 361 415 19,000  Level FlightAware ADS-B
Wed 07:03:54 PM 40.9183 -74.1676 99° East 361 415 19,000  Level FlightAware ADS-B
Wed 07:03:55 PM 40.9180 -74.1655 101° East 362 417 19,000  Level FlightAware ADS-B
Wed 07:04:06 PM 40.9127 -74.1411 106° East 361 415 19,000  Level FlightAware ADS-B
Wed 07:04:13 PM 40.9089 -74.1282 111° Southeast 361 415 19,000  Level FlightAware ADS-B
Wed 07:04:15 PM 40.9070 -74.1228 115° Southeast 360 414 19,000  Level FlightAware ADS-B
Wed 07:04:26 PM 40.8985 -74.1020 118° Southeast 360 414 19,000  Level FlightAware ADS-B
Wed 07:04:51 PM 40.8760 -74.0552 122° Southeast 359 413 19,000 -188 Level FlightAware ADS-B
Wed 07:04:58 PM 40.8700 -74.0429 123° Southeast 357 411 18,900 -1,333 Descending FlightAware ADS-B
Wed 07:05:27 PM 40.8438 -73.9897 123° Southeast 352 405 18,200 -1,500 Descending FlightAware ADS-B
Wed 07:05:30 PM 40.8415 -73.9852 124° Southeast 352 405 18,100 -1,818 Descending FlightAware ADS-B
Wed 07:06:00 PM 40.8144 -73.9305 123° Southeast 352 405 17,200 -1,636 Descending FlightAware ADS-B
Wed 07:06:36 PM 40.7830 -73.8670 123° Southeast 348 400 16,300 -1,412 Descending FlightAware ADS-B
Wed 07:07:08 PM 40.7541 -73.8116 125° Southeast 339 390 15,600 -1,238 Descending FlightAware ADS-B
Wed 07:07:39 PM 40.7260 -73.7603 126° Southeast 331 381 15,000 -1,297 Descending FlightAware ADS-B
Wed 07:08:22 PM 40.6881 -73.6917 126° Southeast 329 379 14,000 -1,478 Descending FlightAware ADS-B
Wed 07:08:48 PM 40.6543 -73.6673 151° Southeast 316 364 13,300 -1,448 Descending FlightAware ADS-B
Wed 07:09:20 PM 40.6095 -73.6509 164° South 311 358 12,600 -1,385 Descending FlightAware ADS-B
Wed 07:09:40 PM 40.5820 -73.6408 164° South 309 356 12,100 -1,412 Descending FlightAware ADS-B
Wed 07:10:11 PM 40.5404 -73.6248 164° South 303 349 11,400 -1,406 Descending FlightAware ADS-B
Wed 07:10:44 PM 40.4965 -73.6080 164° South 296 341 10,600 -1,412 Descending FlightAware ADS-B
Wed 07:11:02 PM 40.4726 -73.5992 164° South 290 334 10,200 -1,500 Descending FlightAware ADS-B
Wed 07:11:08 PM 40.4642 -73.5978 173° South 288 331 10,000 -2,000 Descending FlightAware ADS-B
Wed 07:11:14 PM 40.4562 -73.5982 182° South 285 328 9,800 -1,636 Descending FlightAware ADS-B
Wed 07:11:19 PM 40.4509 -73.5992 188° South 282 325 9,700 -1,714 Descending FlightAware ADS-B
Wed 07:11:35 PM 40.4298 -73.6053 192° South 277 319 9,200 -2,000 Descending FlightAware ADS-B
Wed 07:11:52 PM 40.4087 -73.6123 194° South 275 316 8,600 -2,250 Descending FlightAware ADS-B
Wed 07:12:07 PM 40.3904 -73.6186 195° South 273 314 8,000 -2,182 Descending FlightAware ADS-B
Wed 07:12:25 PM 40.3688 -73.6262 195° South 267 307 7,400 -2,057 Descending FlightAware ADS-B
Wed 07:12:42 PM 40.3494 -73.6330 195° South 262 302 6,800 -2,182 Descending FlightAware ADS-B
Wed 07:12:58 PM 40.3308 -73.6395 195° South 258 297 6,200 -2,053 Descending FlightAware ADS-B
Wed 07:13:20 PM 40.3054 -73.6494 197° South 257 296 5,500 -1,742 Descending FlightAware ADS-B
Wed 07:13:29 PM 40.2962 -73.6569 212° Southwest 254 292 5,300 -1,171 Descending FlightAware ADS-B
Wed 07:14:01 PM 40.2760 -73.6950 235° Southwest 252 290 4,700 -1,171 Descending FlightAware ADS-B
Wed 07:14:10 PM 40.2720 -73.7100 251° West 254 292 4,500 -1,364 Descending FlightAware ADS-B
Wed 07:14:23 PM 40.2728 -73.7294 273° West 255 293 4,200 -1,161 Descending FlightAware ADS-B
Wed 07:14:41 PM 40.2849 -73.7542 303° West 269 310 3,900 -600 Descending FlightAware ADS-B
Wed 07:15:03 PM 40.3058 -73.7768 320° Northwest 275 316 3,800 -158 Descending FlightAware ADS-B
Wed 07:15:19 PM 40.3218 -73.7935 321° Northwest 272 313 3,800  Level FlightAware ADS-B
Wed 07:15:38 PM 40.3403 -73.8138 320° Northwest 264 304 3,800  Level FlightAware ADS-B
Wed 07:15:46 PM 40.3458 -73.8229 308° West 251 289 3,800  Level FlightAware ADS-B
Wed 07:15:51 PM 40.3483 -73.8295 296° West 245 282 3,800  Level FlightAware ADS-B
Wed 07:15:55 PM 40.3499 -73.8355 289° West 238 274 3,800 333 Level FlightAware ADS-B
Wed 07:16:09 PM 40.3530 -73.8536 283° West 223 257 3,900  Climbing FlightAware ADS-B
Wed 07:16:26 PM 40.3562 -73.8768 280° West 219 252 3,800 -188 Descending FlightAware ADS-B
Wed 07:16:41 PM 40.3590 -73.8964 281° West 217 250 3,800  Level FlightAware ADS-B
Wed 07:16:59 PM 40.3622 -73.9188 281° West 216 249 3,800  Level FlightAware ADS-B
Wed 07:17:17 PM 40.3656 -73.9419 281° West 204 235 3,800 162 Level FlightAware ADS-B
Wed 07:17:36 PM 40.3688 -73.9635 281° West 187 215 3,900  Climbing FlightAware ADS-B
Wed 07:17:52 PM 40.3715 -73.9812 281° West 183 211 3,800 -222 Descending FlightAware ADS-B
Wed 07:18:03 PM 40.3735 -73.9933 282° West 183 211 3,800  Level FlightAware ADS-B
Wed 07:18:07 PM 40.3747 -73.9973 291° West 184 212 3,800  Level FlightAware ADS-B
Wed 07:18:13 PM 40.3770 -74.0022 302° West 187 215 3,800  Level FlightAware ADS-B
Wed 07:18:17 PM 40.3794 -74.0055 314° West 188 216 3,800 545 Level FlightAware ADS-B
Wed 07:18:24 PM 40.3843 -74.0104 323° Northwest 190 219 3,900 375 Climbing FlightAware ADS-B
Wed 07:18:33 PM 40.3919 -74.0145 338° Northwest 199 229 3,900 -353 Level FlightAware ADS-B
Wed 07:18:41 PM 40.3996 -74.0149 358° North 204 235 3,800 -545 Descending FlightAware ADS-B
Wed 07:18:44 PM 40.4025 -74.0142 10° North 206 237 3,800 667 Level FlightAware ADS-B
Wed 07:18:50 PM 40.4078 -74.0125 14° North 206 237 3,900  Climbing FlightAware ADS-B
Wed 07:19:06 PM 40.4226 -74.0067 17° North 204 235 3,800 -194 Descending FlightAware ADS-B
Wed 07:19:21 PM 40.4361 -74.0009 18° North 203 234 3,800  Level FlightAware ADS-B
Wed 07:19:41 PM 40.4537 -73.9934 18° North 205 236 3,800 -158 Level FlightAware ADS-B
Wed 07:19:59 PM 40.4704 -73.9864 18° North 204 235 3,700 -787 Descending FlightAware ADS-B
Wed 07:20:42 PM 40.5070 -73.9720 17° North 207 238 3,000 -831 Descending FlightAware ADS-B
Wed 07:21:04 PM 40.5240 -73.9650 17° North 210 242 2,800 -563 Descending FlightAware ADS-B
Wed 07:21:14 PM 40.5350 -73.9580 26° Northeast 213 245 2,700 -750 Descending FlightAware ADS-B
Wed 07:21:44 PM 40.5590 -73.9380 32° Northeast 209 241 2,300 -766 Descending FlightAware ADS-B
Wed 07:22:01 PM 40.5710 -73.9290 30° Northeast 208 239 2,100 -857 Descending FlightAware ADS-B
Wed 07:22:19 PM 40.5890 -73.9140 32° Northeast 207 238 1,800 -980 Descending FlightAware ADS-B
Wed 07:22:50 PM 40.6150 -73.8920 33° Northeast 198 228 1,300 -941 Descending FlightAware ADS-B
Wed 07:23:10 PM 40.6310 -73.8800 30° Northeast 174 200 1,000 -750 Descending FlightAware ADS-B
Wed 07:23:30 PM 40.6440 -73.8710 28° Northeast 158 182 800 -706 Descending FlightAware ADS-B
Wed 07:23:44 PM 40.6530 -73.8640 31° Northeast 152 175 600 -167 Descending FlightAware ADS-B
Wed 07:24:06 PM 40.6650 -73.8530 35° Northeast 152 175 700  Climbing FlightAware ADS-B
Wed 07:24:14 PM 40.6680 -73.8470 57° Northeast 148 170 600 -300 Descending FlightAware ADS-B
Wed 07:24:26 PM 40.6700 -73.8370 75° East 137 158 600 -316 Level FlightAware ADS-B
Wed 07:24:52 PM 40.6670 -73.8160 101° East 133 153 400 -682 Descending FlightAware ADS-B
Wed 07:25:10 PM 40.6630 -73.8020 111° Southeast 126 145 100 -1,000 Descending FlightAware ADS-B
Wed 07:25:24 PM 40.6590 -73.7930 120° Southeast 127 146 -429 Descending FlightAware ADS-B
Wed 07:25:56 PM 40.6500 -73.7740 122° Southeast 80 92  Level FlightAware ADS-B

Login

Don't have an account? Register now (free) for customized features, flight alerts, and more!